sensor_id;sensor_type;location;lat;lon;timestamp;P1;durP1;ratioP1;P2;durP2;ratioP2
2998;SDS011;1509;51.964;7.628;2023-04-25T00:01:10;10.57;;;5.73;;
2998;SDS011;1509;51.964;7.628;2023-04-25T00:03:38;10.70;;;5.40;;
2998;SDS011;1509;51.964;7.628;2023-04-25T00:06:04;10.83;;;5.50;;
2998;SDS011;1509;51.964;7.628;2023-04-25T00:08:31;9.30;;;5.00;;
2998;SDS011;1509;51.964;7.628;2023-04-25T00:10:57;17.90;;;6.20;;
2998;SDS011;1509;51.964;7.628;2023-04-25T00:13:23;13.20;;;6.90;;
2998;SDS011;1509;51.964;7.628;2023-04-25T00:15:50;11.93;;;5.53;;
2998;SDS011;1509;51.964;7.628;2023-04-25T00:18:16;11.77;;;5.90;;
2998;SDS011;1509;51.964;7.628;2023-04-25T00:20:42;16.80;;;6.40;;
2998;SDS011;1509;51.964;7.628;2023-04-25T00:23:11;15.17;;;6.20;;
2998;SDS011;1509;51.964;7.628;2023-04-25T00:25:42;14.97;;;5.97;;
2998;SDS011;1509;51.964;7.628;2023-04-25T00:28:09;19.40;;;6.03;;
2998;SDS011;1509;51.964;7.628;2023-04-25T00:30:35;9.27;;;4.90;;
2998;SDS011;1509;51.964;7.628;2023-04-25T00:33:01;11.77;;;5.20;;
2998;SDS011;1509;51.964;7.628;2023-04-25T00:35:27;10.93;;;5.87;;
2998;SDS011;1509;51.964;7.628;2023-04-25T00:37:53;11.37;;;5.80;;
2998;SDS011;1509;51.964;7.628;2023-04-25T00:40:19;10.30;;;5.50;;
2998;SDS011;1509;51.964;7.628;2023-04-25T00:42:45;11.30;;;5.80;;
2998;SDS011;1509;51.964;7.628;2023-04-25T00:45:12;11.73;;;5.27;;
2998;SDS011;1509;51.964;7.628;2023-04-25T00:47:39;12.90;;;5.20;;
2998;SDS011;1509;51.964;7.628;2023-04-25T00:50:05;14.50;;;5.70;;
2998;SDS011;1509;51.964;7.628;2023-04-25T00:52:32;9.47;;;5.17;;
2998;SDS011;1509;51.964;7.628;2023-04-25T00:54:57;15.20;;;6.00;;
2998;SDS011;1509;51.964;7.628;2023-04-25T00:57:24;11.53;;;5.87;;
2998;SDS011;1509;51.964;7.628;2023-04-25T00:59:50;12.93;;;5.53;;
2998;SDS011;1509;51.964;7.628;2023-04-25T01:02:17;13.47;;;6.23;;
2998;SDS011;1509;51.964;7.628;2023-04-25T01:04:44;13.30;;;6.37;;
2998;SDS011;1509;51.964;7.628;2023-04-25T01:07:10;11.73;;;6.23;;
2998;SDS011;1509;51.964;7.628;2023-04-25T01:09:35;13.43;;;4.80;;
2998;SDS011;1509;51.964;7.628;2023-04-25T01:12:01;11.90;;;6.00;;
2998;SDS011;1509;51.964;7.628;2023-04-25T01:14:27;16.77;;;5.87;;
2998;SDS011;1509;51.964;7.628;2023-04-25T01:16:54;15.57;;;5.97;;
2998;SDS011;1509;51.964;7.628;2023-04-25T01:19:20;10.90;;;5.40;;
2998;SDS011;1509;51.964;7.628;2023-04-25T01:21:46;11.10;;;5.57;;
2998;SDS011;1509;51.964;7.628;2023-04-25T01:24:12;9.47;;;4.60;;
2998;SDS011;1509;51.964;7.628;2023-04-25T01:26:37;11.33;;;5.07;;
2998;SDS011;1509;51.964;7.628;2023-04-25T01:29:05;11.57;;;5.20;;
2998;SDS011;1509;51.964;7.628;2023-04-25T01:31:32;9.67;;;5.13;;
2998;SDS011;1509;51.964;7.628;2023-04-25T01:33:59;11.90;;;5.07;;
2998;SDS011;1509;51.964;7.628;2023-04-25T01:36:25;10.40;;;5.50;;
2998;SDS011;1509;51.964;7.628;2023-04-25T01:38:52;7.63;;;4.93;;
2998;SDS011;1509;51.964;7.628;2023-04-25T01:41:18;9.37;;;5.00;;
2998;SDS011;1509;51.964;7.628;2023-04-25T01:43:44;7.33;;;4.90;;
2998;SDS011;1509;51.964;7.628;2023-04-25T01:46:10;8.40;;;5.37;;
2998;SDS011;1509;51.964;7.628;2023-04-25T01:48:36;9.20;;;4.90;;
2998;SDS011;1509;51.964;7.628;2023-04-25T01:51:02;9.50;;;5.10;;
2998;SDS011;1509;51.964;7.628;2023-04-25T01:53:28;9.07;;;4.80;;
2998;SDS011;1509;51.964;7.628;2023-04-25T01:55:54;14.43;;;4.67;;
2998;SDS011;1509;51.964;7.628;2023-04-25T01:58:20;13.93;;;5.33;;
2998;SDS011;1509;51.964;7.628;2023-04-25T02:00:46;8.90;;;5.17;;
2998;SDS011;1509;51.964;7.628;2023-04-25T02:03:11;14.80;;;6.30;;
2998;SDS011;1509;51.964;7.628;2023-04-25T02:05:37;15.00;;;5.20;;
2998;SDS011;1509;51.964;7.628;2023-04-25T02:08:06;13.63;;;4.43;;
2998;SDS011;1509;51.964;7.628;2023-04-25T02:10:33;16.97;;;5.00;;
2998;SDS011;1509;51.964;7.628;2023-04-25T02:12:59;15.30;;;4.87;;
2998;SDS011;1509;51.964;7.628;2023-04-25T02:15:25;11.97;;;6.60;;
2998;SDS011;1509;51.964;7.628;2023-04-25T02:17:50;7.90;;;4.47;;
2998;SDS011;1509;51.964;7.628;2023-04-25T02:20:22;11.93;;;5.13;;
2998;SDS011;1509;51.964;7.628;2023-04-25T02:22:49;15.97;;;6.43;;
2998;SDS011;1509;51.964;7.628;2023-04-25T02:25:15;10.00;;;4.17;;
2998;SDS011;1509;51.964;7.628;2023-04-25T02:27:42;13.03;;;4.63;;
2998;SDS011;1509;51.964;7.628;2023-04-25T02:30:08;12.60;;;4.97;;
2998;SDS011;1509;51.964;7.628;2023-04-25T02:32:34;12.77;;;4.10;;
2998;SDS011;1509;51.964;7.628;2023-04-25T02:35:00;10.43;;;4.53;;
2998;SDS011;1509;51.964;7.628;2023-04-25T02:37:36;14.03;;;5.10;;
2998;SDS011;1509;51.964;7.628;2023-04-25T02:40:03;12.23;;;4.70;;
2998;SDS011;1509;51.964;7.628;2023-04-25T02:42:29;12.27;;;4.50;;
2998;SDS011;1509;51.964;7.628;2023-04-25T02:44:55;17.53;;;4.73;;
2998;SDS011;1509;51.964;7.628;2023-04-25T02:47:21;10.10;;;4.53;;
2998;SDS011;1509;51.964;7.628;2023-04-25T02:49:46;12.37;;;5.07;;
2998;SDS011;1509;51.964;7.628;2023-04-25T02:52:12;10.93;;;5.20;;
2998;SDS011;1509;51.964;7.628;2023-04-25T02:54:39;11.83;;;4.50;;
2998;SDS011;1509;51.964;7.628;2023-04-25T02:57:05;17.37;;;4.77;;
2998;SDS011;1509;51.964;7.628;2023-04-25T02:59:31;14.20;;;5.93;;
2998;SDS011;1509;51.964;7.628;2023-04-25T03:01:56;14.03;;;4.93;;
2998;SDS011;1509;51.964;7.628;2023-04-25T03:04:22;8.53;;;4.80;;
2998;SDS011;1509;51.964;7.628;2023-04-25T03:06:49;10.80;;;4.83;;
2998;SDS011;1509;51.964;7.628;2023-04-25T03:09:18;15.23;;;4.97;;
2998;SDS011;1509;51.964;7.628;2023-04-25T03:11:44;11.40;;;5.30;;
2998;SDS011;1509;51.964;7.628;2023-04-25T03:14:10;14.97;;;5.77;;
2998;SDS011;1509;51.964;7.628;2023-04-25T03:16:36;18.37;;;5.67;;
2998;SDS011;1509;51.964;7.628;2023-04-25T03:19:02;14.57;;;5.93;;
2998;SDS011;1509;51.964;7.628;2023-04-25T03:21:29;17.20;;;5.90;;
2998;SDS011;1509;51.964;7.628;2023-04-25T03:23:56;13.43;;;5.70;;
2998;SDS011;1509;51.964;7.628;2023-04-25T03:26:23;12.17;;;4.63;;
2998;SDS011;1509;51.964;7.628;2023-04-25T03:28:48;14.10;;;5.30;;
2998;SDS011;1509;51.964;7.628;2023-04-25T03:31:14;14.60;;;5.40;;
2998;SDS011;1509;51.964;7.628;2023-04-25T03:33:39;16.00;;;7.70;;
2998;SDS011;1509;51.964;7.628;2023-04-25T03:36:05;12.83;;;4.60;;
2998;SDS011;1509;51.964;7.628;2023-04-25T03:38:31;17.07;;;4.37;;
2998;SDS011;1509;51.964;7.628;2023-04-25T03:40:57;10.13;;;5.37;;
2998;SDS011;1509;51.964;7.628;2023-04-25T03:43:22;15.83;;;4.63;;
2998;SDS011;1509;51.964;7.628;2023-04-25T03:45:48;8.00;;;4.50;;
2998;SDS011;1509;51.964;7.628;2023-04-25T03:48:14;12.33;;;4.77;;
2998;SDS011;1509;51.964;7.628;2023-04-25T03:50:39;12.73;;;5.40;;
2998;SDS011;1509;51.964;7.628;2023-04-25T03:53:05;14.20;;;4.90;;
2998;SDS011;1509;51.964;7.628;2023-04-25T03:55:31;14.43;;;4.90;;
2998;SDS011;1509;51.964;7.628;2023-04-25T03:57:57;13.47;;;4.13;;
2998;SDS011;1509;51.964;7.628;2023-04-25T04:00:23;13.17;;;5.90;;
2998;SDS011;1509;51.964;7.628;2023-04-25T04:02:50;10.90;;;4.73;;
2998;SDS011;1509;51.964;7.628;2023-04-25T04:05:15;18.17;;;6.17;;
2998;SDS011;1509;51.964;7.628;2023-04-25T04:07:41;17.80;;;5.33;;
2998;SDS011;1509;51.964;7.628;2023-04-25T04:10:08;17.77;;;5.57;;
2998;SDS011;1509;51.964;7.628;2023-04-25T04:12:35;14.50;;;5.10;;
2998;SDS011;1509;51.964;7.628;2023-04-25T04:15:01;15.67;;;5.43;;
2998;SDS011;1509;51.964;7.628;2023-04-25T04:17:31;12.40;;;4.50;;
2998;SDS011;1509;51.964;7.628;2023-04-25T04:20:00;14.23;;;4.87;;
2998;SDS011;1509;51.964;7.628;2023-04-25T04:22:26;18.13;;;5.80;;
2998;SDS011;1509;51.964;7.628;2023-04-25T04:24:51;9.30;;;4.50;;
2998;SDS011;1509;51.964;7.628;2023-04-25T04:27:17;14.50;;;5.30;;
2998;SDS011;1509;51.964;7.628;2023-04-25T04:29:44;12.33;;;4.70;;
2998;SDS011;1509;51.964;7.628;2023-04-25T04:32:10;9.53;;;4.30;;
2998;SDS011;1509;51.964;7.628;2023-04-25T04:34:36;17.73;;;4.60;;
2998;SDS011;1509;51.964;7.628;2023-04-25T04:37:02;9.30;;;4.43;;
2998;SDS011;1509;51.964;7.628;2023-04-25T04:39:28;14.97;;;5.90;;
2998;SDS011;1509;51.964;7.628;2023-04-25T04:41:53;18.07;;;5.40;;
2998;SDS011;1509;51.964;7.628;2023-04-25T04:44:19;15.20;;;5.37;;
2998;SDS011;1509;51.964;7.628;2023-04-25T04:46:45;17.83;;;4.70;;
2998;SDS011;1509;51.964;7.628;2023-04-25T04:49:11;14.03;;;4.83;;
2998;SDS011;1509;51.964;7.628;2023-04-25T04:51:38;18.37;;;5.47;;
2998;SDS011;1509;51.964;7.628;2023-04-25T04:54:05;20.67;;;5.80;;
2998;SDS011;1509;51.964;7.628;2023-04-25T04:56:31;12.97;;;5.60;;
2998;SDS011;1509;51.964;7.628;2023-04-25T04:58:57;13.20;;;4.60;;
2998;SDS011;1509;51.964;7.628;2023-04-25T05:01:23;14.33;;;5.23;;
2998;SDS011;1509;51.964;7.628;2023-04-25T05:03:49;12.60;;;4.97;;
2998;SDS011;1509;51.964;7.628;2023-04-25T05:06:16;20.00;;;6.80;;
2998;SDS011;1509;51.964;7.628;2023-04-25T05:08:43;16.77;;;5.77;;
2998;SDS011;1509;51.964;7.628;2023-04-25T05:11:09;16.70;;;6.27;;
2998;SDS011;1509;51.964;7.628;2023-04-25T05:13:35;15.73;;;5.03;;
2998;SDS011;1509;51.964;7.628;2023-04-25T05:16:00;12.87;;;5.50;;
2998;SDS011;1509;51.964;7.628;2023-04-25T05:18:26;17.57;;;5.70;;
2998;SDS011;1509;51.964;7.628;2023-04-25T05:20:51;15.23;;;5.07;;
2998;SDS011;1509;51.964;7.628;2023-04-25T05:23:18;17.33;;;5.50;;
2998;SDS011;1509;51.964;7.628;2023-04-25T05:25:43;10.40;;;5.03;;
2998;SDS011;1509;51.964;7.628;2023-04-25T05:28:10;10.13;;;4.83;;
2998;SDS011;1509;51.964;7.628;2023-04-25T05:30:37;13.63;;;5.53;;
2998;SDS011;1509;51.964;7.628;2023-04-25T05:33:03;17.80;;;5.63;;
2998;SDS011;1509;51.964;7.628;2023-04-25T05:35:28;13.27;;;5.17;;
2998;SDS011;1509;51.964;7.628;2023-04-25T05:37:54;13.43;;;4.80;;
2998;SDS011;1509;51.964;7.628;2023-04-25T05:40:19;8.70;;;5.03;;
2998;SDS011;1509;51.964;7.628;2023-04-25T05:42:45;11.40;;;4.40;;
2998;SDS011;1509;51.964;7.628;2023-04-25T05:45:11;13.90;;;5.00;;
2998;SDS011;1509;51.964;7.628;2023-04-25T05:47:36;8.27;;;4.30;;
2998;SDS011;1509;51.964;7.628;2023-04-25T05:50:02;12.10;;;5.10;;
2998;SDS011;1509;51.964;7.628;2023-04-25T05:52:28;12.13;;;4.63;;
2998;SDS011;1509;51.964;7.628;2023-04-25T05:54:54;7.73;;;4.50;;
2998;SDS011;1509;51.964;7.628;2023-04-25T05:57:20;15.77;;;6.27;;
2998;SDS011;1509;51.964;7.628;2023-04-25T05:59:50;13.67;;;5.80;;
2998;SDS011;1509;51.964;7.628;2023-04-25T06:02:16;15.07;;;4.90;;
2998;SDS011;1509;51.964;7.628;2023-04-25T06:04:43;18.33;;;5.10;;
2998;SDS011;1509;51.964;7.628;2023-04-25T06:07:08;12.20;;;4.80;;
2998;SDS011;1509;51.964;7.628;2023-04-25T06:09:34;12.43;;;3.97;;
2998;SDS011;1509;51.964;7.628;2023-04-25T06:11:59;7.10;;;4.17;;
2998;SDS011;1509;51.964;7.628;2023-04-25T06:14:26;10.13;;;4.10;;
2998;SDS011;1509;51.964;7.628;2023-04-25T06:16:52;15.07;;;4.17;;
2998;SDS011;1509;51.964;7.628;2023-04-25T06:19:17;7.97;;;3.30;;
2998;SDS011;1509;51.964;7.628;2023-04-25T06:21:43;13.17;;;4.30;;
2998;SDS011;1509;51.964;7.628;2023-04-25T06:24:09;11.80;;;3.77;;
2998;SDS011;1509;51.964;7.628;2023-04-25T06:26:35;6.13;;;3.57;;
2998;SDS011;1509;51.964;7.628;2023-04-25T06:29:01;17.27;;;3.93;;
2998;SDS011;1509;51.964;7.628;2023-04-25T06:31:26;12.07;;;4.00;;
2998;SDS011;1509;51.964;7.628;2023-04-25T06:33:53;7.60;;;3.83;;
2998;SDS011;1509;51.964;7.628;2023-04-25T06:36:20;12.57;;;4.20;;
2998;SDS011;1509;51.964;7.628;2023-04-25T06:38:50;15.23;;;3.80;;
2998;SDS011;1509;51.964;7.628;2023-04-25T06:41:16;16.57;;;3.80;;
2998;SDS011;1509;51.964;7.628;2023-04-25T06:43:42;8.97;;;3.40;;
2998;SDS011;1509;51.964;7.628;2023-04-25T06:46:08;9.33;;;4.00;;
2998;SDS011;1509;51.964;7.628;2023-04-25T06:48:33;8.90;;;2.93;;
2998;SDS011;1509;51.964;7.628;2023-04-25T06:50:59;12.77;;;4.00;;
2998;SDS011;1509;51.964;7.628;2023-04-25T06:53:24;7.13;;;3.43;;
2998;SDS011;1509;51.964;7.628;2023-04-25T06:55:50;8.13;;;3.63;;
2998;SDS011;1509;51.964;7.628;2023-04-25T06:58:16;15.10;;;4.00;;
2998;SDS011;1509;51.964;7.628;2023-04-25T07:00:42;14.23;;;4.20;;
2998;SDS011;1509;51.964;7.628;2023-04-25T07:03:10;11.50;;;4.17;;
2998;SDS011;1509;51.964;7.628;2023-04-25T07:05:36;13.50;;;3.40;;
2998;SDS011;1509;51.964;7.628;2023-04-25T07:08:04;11.23;;;3.40;;
2998;SDS011;1509;51.964;7.628;2023-04-25T07:10:30;13.47;;;4.90;;
2998;SDS011;1509;51.964;7.628;2023-04-25T07:12:56;8.57;;;3.57;;
2998;SDS011;1509;51.964;7.628;2023-04-25T07:15:22;9.77;;;3.40;;
2998;SDS011;1509;51.964;7.628;2023-04-25T07:17:47;7.23;;;3.50;;
2998;SDS011;1509;51.964;7.628;2023-04-25T07:20:15;14.17;;;3.83;;
2998;SDS011;1509;51.964;7.628;2023-04-25T07:22:41;8.13;;;3.23;;
2998;SDS011;1509;51.964;7.628;2023-04-25T07:25:06;8.80;;;3.80;;
2998;SDS011;1509;51.964;7.628;2023-04-25T07:27:33;11.33;;;3.20;;
2998;SDS011;1509;51.964;7.628;2023-04-25T07:29:59;5.10;;;3.33;;
2998;SDS011;1509;51.964;7.628;2023-04-25T07:32:25;13.07;;;3.90;;
2998;SDS011;1509;51.964;7.628;2023-04-25T07:34:51;8.20;;;2.90;;
2998;SDS011;1509;51.964;7.628;2023-04-25T07:37:17;9.10;;;3.33;;
2998;SDS011;1509;51.964;7.628;2023-04-25T07:39:44;8.03;;;2.90;;
2998;SDS011;1509;51.964;7.628;2023-04-25T07:42:11;8.43;;;2.90;;
2998;SDS011;1509;51.964;7.628;2023-04-25T07:44:36;6.83;;;2.73;;
2998;SDS011;1509;51.964;7.628;2023-04-25T07:47:08;9.40;;;2.93;;
2998;SDS011;1509;51.964;7.628;2023-04-25T07:49:35;10.23;;;3.43;;
2998;SDS011;1509;51.964;7.628;2023-04-25T07:52:01;7.50;;;2.83;;
2998;SDS011;1509;51.964;7.628;2023-04-25T07:54:28;7.90;;;2.40;;
2998;SDS011;1509;51.964;7.628;2023-04-25T07:56:55;9.60;;;2.40;;
2998;SDS011;1509;51.964;7.628;2023-04-25T07:59:20;12.20;;;3.10;;
2998;SDS011;1509;51.964;7.628;2023-04-25T08:01:46;5.73;;;2.77;;
2998;SDS011;1509;51.964;7.628;2023-04-25T08:04:12;7.30;;;3.37;;
2998;SDS011;1509;51.964;7.628;2023-04-25T08:06:38;7.80;;;3.90;;
2998;SDS011;1509;51.964;7.628;2023-04-25T08:09:03;11.60;;;3.63;;
2998;SDS011;1509;51.964;7.628;2023-04-25T08:11:29;7.47;;;2.47;;
2998;SDS011;1509;51.964;7.628;2023-04-25T08:13:55;4.95;;;2.80;;
2998;SDS011;1509;51.964;7.628;2023-04-25T08:16:21;11.20;;;3.30;;
2998;SDS011;1509;51.964;7.628;2023-04-25T08:18:47;8.40;;;3.70;;
2998;SDS011;1509;51.964;7.628;2023-04-25T08:21:12;10.60;;;3.20;;
2998;SDS011;1509;51.964;7.628;2023-04-25T08:23:38;7.87;;;2.77;;
2998;SDS011;1509;51.964;7.628;2023-04-25T08:26:04;5.10;;;2.40;;
2998;SDS011;1509;51.964;7.628;2023-04-25T08:28:30;7.93;;;2.50;;
2998;SDS011;1509;51.964;7.628;2023-04-25T08:31:04;11.00;;;3.23;;
2998;SDS011;1509;51.964;7.628;2023-04-25T08:33:30;5.70;;;2.50;;
2998;SDS011;1509;51.964;7.628;2023-04-25T08:35:57;7.47;;;2.80;;
2998;SDS011;1509;51.964;7.628;2023-04-25T08:38:22;8.30;;;2.83;;
2998;SDS011;1509;51.964;7.628;2023-04-25T08:40:51;10.40;;;2.43;;
2998;SDS011;1509;51.964;7.628;2023-04-25T08:43:18;7.80;;;2.53;;
2998;SDS011;1509;51.964;7.628;2023-04-25T08:45:45;6.40;;;2.33;;
2998;SDS011;1509;51.964;7.628;2023-04-25T08:48:12;4.90;;;2.13;;
2998;SDS011;1509;51.964;7.628;2023-04-25T08:50:49;7.37;;;2.37;;
2998;SDS011;1509;51.964;7.628;2023-04-25T08:53:17;12.00;;;2.13;;
2998;SDS011;1509;51.964;7.628;2023-04-25T08:55:50;12.00;;;2.53;;
2998;SDS011;1509;51.964;7.628;2023-04-25T08:58:18;7.17;;;2.37;;
2998;SDS011;1509;51.964;7.628;2023-04-25T09:00:45;5.33;;;2.43;;
2998;SDS011;1509;51.964;7.628;2023-04-25T09:03:13;5.93;;;1.90;;
2998;SDS011;1509;51.964;7.628;2023-04-25T09:05:40;7.33;;;2.10;;
2998;SDS011;1509;51.964;7.628;2023-04-25T09:08:06;7.63;;;2.07;;
2998;SDS011;1509;51.964;7.628;2023-04-25T09:10:32;7.30;;;2.40;;
2998;SDS011;1509;51.964;7.628;2023-04-25T09:13:05;7.57;;;2.03;;
2998;SDS011;1509;51.964;7.628;2023-04-25T09:15:33;5.60;;;2.40;;
2998;SDS011;1509;51.964;7.628;2023-04-25T09:18:12;4.27;;;2.73;;
2998;SDS011;1509;51.964;7.628;2023-04-25T09:20:41;7.27;;;1.90;;
2998;SDS011;1509;51.964;7.628;2023-04-25T09:23:13;6.30;;;1.97;;
2998;SDS011;1509;51.964;7.628;2023-04-25T09:25:40;6.67;;;2.10;;
2998;SDS011;1509;51.964;7.628;2023-04-25T09:28:08;7.73;;;2.10;;
2998;SDS011;1509;51.964;7.628;2023-04-25T09:30:34;7.63;;;3.00;;
2998;SDS011;1509;51.964;7.628;2023-04-25T09:33:04;4.17;;;2.30;;
2998;SDS011;1509;51.964;7.628;2023-04-25T09:35:34;6.30;;;1.90;;
2998;SDS011;1509;51.964;7.628;2023-04-25T09:38:10;5.00;;;2.00;;
2998;SDS011;1509;51.964;7.628;2023-04-25T09:40:41;4.50;;;1.73;;
2998;SDS011;1509;51.964;7.628;2023-04-25T09:43:09;3.90;;;2.23;;
2998;SDS011;1509;51.964;7.628;2023-04-25T09:45:41;3.57;;;1.60;;
2998;SDS011;1509;51.964;7.628;2023-04-25T09:48:19;4.10;;;1.63;;
2998;SDS011;1509;51.964;7.628;2023-04-25T09:51:03;4.30;;;1.67;;
2998;SDS011;1509;51.964;7.628;2023-04-25T09:53:29;3.53;;;2.13;;
2998;SDS011;1509;51.964;7.628;2023-04-25T09:55:59;4.10;;;1.67;;
2998;SDS011;1509;51.964;7.628;2023-04-25T09:58:25;3.90;;;1.70;;
2998;SDS011;1509;51.964;7.628;2023-04-25T10:00:55;4.70;;;1.77;;
2998;SDS011;1509;51.964;7.628;2023-04-25T10:03:26;7.77;;;1.80;;
2998;SDS011;1509;51.964;7.628;2023-04-25T10:05:53;5.73;;;2.30;;
2998;SDS011;1509;51.964;7.628;2023-04-25T10:08:20;9.33;;;2.10;;
2998;SDS011;1509;51.964;7.628;2023-04-25T10:10:47;4.77;;;2.07;;
2998;SDS011;1509;51.964;7.628;2023-04-25T10:13:15;3.43;;;1.77;;
2998;SDS011;1509;51.964;7.628;2023-04-25T10:15:41;8.73;;;1.93;;
2998;SDS011;1509;51.964;7.628;2023-04-25T10:18:07;6.00;;;1.83;;
2998;SDS011;1509;51.964;7.628;2023-04-25T10:20:34;3.63;;;1.77;;
2998;SDS011;1509;51.964;7.628;2023-04-25T10:23:03;6.07;;;1.87;;
2998;SDS011;1509;51.964;7.628;2023-04-25T10:25:39;4.50;;;1.63;;
2998;SDS011;1509;51.964;7.628;2023-04-25T10:28:08;6.10;;;1.90;;
2998;SDS011;1509;51.964;7.628;2023-04-25T10:30:34;4.90;;;1.97;;
2998;SDS011;1509;51.964;7.628;2023-04-25T10:32:59;5.87;;;2.07;;
2998;SDS011;1509;51.964;7.628;2023-04-25T10:35:27;5.63;;;1.70;;
2998;SDS011;1509;51.964;7.628;2023-04-25T10:37:58;4.70;;;1.70;;
2998;SDS011;1509;51.964;7.628;2023-04-25T10:40:41;7.53;;;2.37;;
2998;SDS011;1509;51.964;7.628;2023-04-25T10:45:56;5.20;;;2.13;;
2998;SDS011;1509;51.964;7.628;2023-04-25T10:48:27;4.40;;;1.30;;
2998;SDS011;1509;51.964;7.628;2023-04-25T10:53:45;5.40;;;2.00;;
2998;SDS011;1509;51.964;7.628;2023-04-25T10:56:17;6.93;;;2.13;;
2998;SDS011;1509;51.964;7.628;2023-04-25T10:58:45;4.37;;;1.50;;
2998;SDS011;1509;51.964;7.628;2023-04-25T11:01:14;5.50;;;2.00;;
2998;SDS011;1509;51.964;7.628;2023-04-25T11:03:44;4.47;;;1.87;;
2998;SDS011;1509;51.964;7.628;2023-04-25T11:06:23;7.70;;;3.57;;
2998;SDS011;1509;51.964;7.628;2023-04-25T11:09:02;5.23;;;1.77;;
2998;SDS011;1509;51.964;7.628;2023-04-25T11:11:36;4.73;;;1.57;;
2998;SDS011;1509;51.964;7.628;2023-04-25T11:14:02;4.13;;;1.93;;
2998;SDS011;1509;51.964;7.628;2023-04-25T11:16:27;6.17;;;1.80;;
2998;SDS011;1509;51.964;7.628;2023-04-25T11:18:53;3.40;;;1.90;;
2998;SDS011;1509;51.964;7.628;2023-04-25T11:21:22;5.10;;;2.50;;
2998;SDS011;1509;51.964;7.628;2023-04-25T11:23:47;6.37;;;2.20;;
2998;SDS011;1509;51.964;7.628;2023-04-25T11:26:15;7.37;;;2.00;;
2998;SDS011;1509;51.964;7.628;2023-04-25T11:28:44;4.43;;;1.67;;
2998;SDS011;1509;51.964;7.628;2023-04-25T11:31:10;6.43;;;2.30;;
2998;SDS011;1509;51.964;7.628;2023-04-25T11:33:35;4.53;;;1.70;;
2998;SDS011;1509;51.964;7.628;2023-04-25T11:36:01;2.80;;;1.53;;
2998;SDS011;1509;51.964;7.628;2023-04-25T11:38:27;5.63;;;1.70;;
2998;SDS011;1509;51.964;7.628;2023-04-25T11:40:56;5.53;;;1.57;;
2998;SDS011;1509;51.964;7.628;2023-04-25T11:43:22;4.10;;;1.80;;
2998;SDS011;1509;51.964;7.628;2023-04-25T11:45:48;4.90;;;1.77;;
2998;SDS011;1509;51.964;7.628;2023-04-25T11:48:18;3.97;;;1.53;;
2998;SDS011;1509;51.964;7.628;2023-04-25T11:50:44;6.23;;;1.50;;
2998;SDS011;1509;51.964;7.628;2023-04-25T11:53:13;2.80;;;1.23;;
2998;SDS011;1509;51.964;7.628;2023-04-25T11:55:38;2.43;;;1.20;;
2998;SDS011;1509;51.964;7.628;2023-04-25T11:58:07;3.77;;;1.40;;
2998;SDS011;1509;51.964;7.628;2023-04-25T12:00:33;1.83;;;0.87;;
2998;SDS011;1509;51.964;7.628;2023-04-25T12:02:59;2.43;;;0.83;;
2998;SDS011;1509;51.964;7.628;2023-04-25T12:05:28;1.93;;;1.10;;
2998;SDS011;1509;51.964;7.628;2023-04-25T12:07:55;2.63;;;1.00;;
2998;SDS011;1509;51.964;7.628;2023-04-25T12:10:21;3.23;;;1.27;;
2998;SDS011;1509;51.964;7.628;2023-04-25T12:12:49;4.10;;;1.20;;
2998;SDS011;1509;51.964;7.628;2023-04-25T12:15:22;1.90;;;1.20;;
2998;SDS011;1509;51.964;7.628;2023-04-25T12:17:50;2.53;;;1.20;;
2998;SDS011;1509;51.964;7.628;2023-04-25T12:20:18;3.30;;;1.20;;
2998;SDS011;1509;51.964;7.628;2023-04-25T12:22:46;1.90;;;1.10;;
2998;SDS011;1509;51.964;7.628;2023-04-25T12:28:15;2.53;;;1.13;;
2998;SDS011;1509;51.964;7.628;2023-04-25T12:31:03;3.23;;;1.33;;
2998;SDS011;1509;51.964;7.628;2023-04-25T12:33:34;4.10;;;1.43;;
2998;SDS011;1509;51.964;7.628;2023-04-25T12:36:01;4.20;;;1.60;;
2998;SDS011;1509;51.964;7.628;2023-04-25T12:38:35;4.17;;;1.60;;
2998;SDS011;1509;51.964;7.628;2023-04-25T12:41:02;4.20;;;1.60;;
2998;SDS011;1509;51.964;7.628;2023-04-25T12:43:28;3.40;;;1.80;;
2998;SDS011;1509;51.964;7.628;2023-04-25T12:45:54;4.07;;;1.37;;
2998;SDS011;1509;51.964;7.628;2023-04-25T12:48:20;2.67;;;1.60;;
2998;SDS011;1509;51.964;7.628;2023-04-25T12:50:47;2.57;;;1.40;;
2998;SDS011;1509;51.964;7.628;2023-04-25T12:53:23;5.57;;;2.23;;
2998;SDS011;1509;51.964;7.628;2023-04-25T12:55:49;3.97;;;1.60;;
2998;SDS011;1509;51.964;7.628;2023-04-25T12:58:16;2.47;;;1.20;;
2998;SDS011;1509;51.964;7.628;2023-04-25T13:00:43;9.03;;;1.93;;
2998;SDS011;1509;51.964;7.628;2023-04-25T13:03:09;3.47;;;1.90;;
2998;SDS011;1509;51.964;7.628;2023-04-25T13:05:36;4.00;;;1.53;;
2998;SDS011;1509;51.964;7.628;2023-04-25T13:08:02;3.70;;;2.00;;
2998;SDS011;1509;51.964;7.628;2023-04-25T13:10:28;4.33;;;1.90;;
2998;SDS011;1509;51.964;7.628;2023-04-25T13:12:54;3.77;;;1.63;;
2998;SDS011;1509;51.964;7.628;2023-04-25T13:15:22;4.30;;;1.60;;
2998;SDS011;1509;51.964;7.628;2023-04-25T13:17:48;5.10;;;1.53;;
2998;SDS011;1509;51.964;7.628;2023-04-25T13:20:13;2.80;;;1.77;;
2998;SDS011;1509;51.964;7.628;2023-04-25T13:22:40;3.13;;;1.53;;
2998;SDS011;1509;51.964;7.628;2023-04-25T13:25:10;5.03;;;1.50;;
2998;SDS011;1509;51.964;7.628;2023-04-25T13:27:36;4.30;;;1.80;;
2998;SDS011;1509;51.964;7.628;2023-04-25T13:30:03;2.87;;;1.60;;
2998;SDS011;1509;51.964;7.628;2023-04-25T13:32:33;4.30;;;1.60;;
2998;SDS011;1509;51.964;7.628;2023-04-25T13:35:01;5.10;;;1.60;;
2998;SDS011;1509;51.964;7.628;2023-04-25T13:37:27;3.30;;;1.67;;
2998;SDS011;1509;51.964;7.628;2023-04-25T13:39:54;6.40;;;1.60;;
2998;SDS011;1509;51.964;7.628;2023-04-25T13:42:21;5.27;;;2.30;;
2998;SDS011;1509;51.964;7.628;2023-04-25T13:44:47;5.40;;;2.00;;
2998;SDS011;1509;51.964;7.628;2023-04-25T13:47:13;6.30;;;1.80;;
2998;SDS011;1509;51.964;7.628;2023-04-25T13:49:39;2.83;;;1.70;;
2998;SDS011;1509;51.964;7.628;2023-04-25T13:52:05;1.80;;;1.30;;
2998;SDS011;1509;51.964;7.628;2023-04-25T13:54:33;3.23;;;1.40;;
2998;SDS011;1509;51.964;7.628;2023-04-25T13:56:59;3.80;;;1.90;;
2998;SDS011;1509;51.964;7.628;2023-04-25T13:59:27;4.53;;;1.60;;
2998;SDS011;1509;51.964;7.628;2023-04-25T14:01:53;3.33;;;1.60;;
2998;SDS011;1509;51.964;7.628;2023-04-25T14:04:19;4.60;;;1.60;;
2998;SDS011;1509;51.964;7.628;2023-04-25T14:06:44;2.57;;;1.43;;
2998;SDS011;1509;51.964;7.628;2023-04-25T14:09:10;5.90;;;1.67;;
2998;SDS011;1509;51.964;7.628;2023-04-25T14:11:38;3.80;;;1.50;;
2998;SDS011;1509;51.964;7.628;2023-04-25T14:14:04;3.30;;;1.70;;
2998;SDS011;1509;51.964;7.628;2023-04-25T14:16:30;2.63;;;1.47;;
2998;SDS011;1509;51.964;7.628;2023-04-25T14:18:57;5.33;;;1.80;;
2998;SDS011;1509;51.964;7.628;2023-04-25T14:21:23;3.13;;;1.60;;
2998;SDS011;1509;51.964;7.628;2023-04-25T14:23:50;5.80;;;1.67;;
2998;SDS011;1509;51.964;7.628;2023-04-25T14:26:15;3.90;;;1.70;;
2998;SDS011;1509;51.964;7.628;2023-04-25T14:28:41;4.27;;;2.00;;
2998;SDS011;1509;51.964;7.628;2023-04-25T14:31:07;5.00;;;2.00;;
2998;SDS011;1509;51.964;7.628;2023-04-25T14:33:32;4.67;;;1.50;;
2998;SDS011;1509;51.964;7.628;2023-04-25T14:35:59;4.00;;;1.53;;
2998;SDS011;1509;51.964;7.628;2023-04-25T14:38:24;6.87;;;1.80;;
2998;SDS011;1509;51.964;7.628;2023-04-25T14:40:50;3.73;;;1.70;;
2998;SDS011;1509;51.964;7.628;2023-04-25T14:43:16;3.17;;;1.37;;
2998;SDS011;1509;51.964;7.628;2023-04-25T14:45:42;3.70;;;1.50;;
2998;SDS011;1509;51.964;7.628;2023-04-25T14:48:08;3.40;;;1.80;;
2998;SDS011;1509;51.964;7.628;2023-04-25T14:50:34;5.03;;;1.77;;
2998;SDS011;1509;51.964;7.628;2023-04-25T14:52:59;2.70;;;1.60;;
2998;SDS011;1509;51.964;7.628;2023-04-25T14:55:28;2.67;;;1.90;;
2998;SDS011;1509;51.964;7.628;2023-04-25T14:57:59;2.43;;;1.30;;
2998;SDS011;1509;51.964;7.628;2023-04-25T15:00:28;2.70;;;1.73;;
2998;SDS011;1509;51.964;7.628;2023-04-25T15:02:55;3.23;;;1.87;;
2998;SDS011;1509;51.964;7.628;2023-04-25T15:05:21;4.97;;;1.90;;
2998;SDS011;1509;51.964;7.628;2023-04-25T15:07:49;2.83;;;1.60;;
2998;SDS011;1509;51.964;7.628;2023-04-25T15:10:14;3.63;;;1.60;;
2998;SDS011;1509;51.964;7.628;2023-04-25T15:12:44;4.30;;;1.87;;
2998;SDS011;1509;51.964;7.628;2023-04-25T15:15:11;3.10;;;1.80;;
2998;SDS011;1509;51.964;7.628;2023-04-25T15:17:46;5.53;;;1.40;;